Flight Track Log - Related Links

Times and Time Zones

All times are in EDT time to prevent confusion due to time zone crossing. See the N877PM flight status page for this flight to view local times or setup timezone preferences in your user account.

Time Position Orientation Groundspeed Altitude Reporting Facility
EDT Latitude Longitude Course Direction KTS MPH feet Rate Location/Type
Sat 06:44:04 AM 26.2411 -81.7414 342° North 153 176 5,700  Level Miami Center
Sat 06:45:04 AM 26.2808 -81.7406 North 153 176 7,500 1,850 Climbing Miami Center
Sat 06:46:04 AM 26.3247 -81.7400 North 153 176 9,400 1,450 Climbing Miami Center
Sat 06:47:04 AM 26.3725 -81.7419 358° North 161 185 10,400 950 Climbing Miami Center
Sat 06:48:00 AM 26.6427 -81.6936 342° North  Level Estimated
Sat 06:48:04 AM 26.4206 -81.7417 360° North 170 196 11,300  Level Miami Center
Sat 06:50:04 AM 26.5458 -81.7444 359° North 318 366 14,600 1,533 Climbing Miami Center
Sat 06:51:04 AM 26.6000 -81.7469 358° North 247 284 15,900 1,250 Climbing Miami Center
Sat 06:52:04 AM 26.6586 -81.7447 North 215 247 17,100 1,200 Climbing Miami Center
Sat 06:53:04 AM 26.7192 -81.7447 360° North 208 239 18,300 1,200 Climbing Miami Center
Sat 06:54:04 AM 26.7775 -81.7450 360° North 208 239 19,500 1,150 Climbing Miami Center
Sat 06:55:04 AM 26.8358 -81.7475 358° North 208 239 20,600 1,100 Climbing Miami Center
Sat 06:56:04 AM 26.8925 -81.7428 North 208 239 21,700 1,150 Climbing Miami Center
Sat 06:57:04 AM 26.9492 -81.7289 12° North 208 239 22,900 1,150 Climbing Miami Center
Sat 06:58:04 AM 27.0058 -81.7172 10° North 208 239 24,000 1,150 Climbing Miami Center
Sat 06:59:04 AM 27.0692 -81.6967 16° North 212 244 25,200 1,100 Climbing Miami Center
Sat 07:00:04 AM 27.1281 -81.6828 12° North 212 244 26,200 1,000 Climbing Miami Center
Sat 07:01:04 AM 27.1828 -81.6686 13° North 212 244 27,200 950 Climbing Miami Center
Sat 07:02:04 AM 27.2439 -81.6547 11° North 212 244 28,100 1,050 Climbing Miami Center
Sat 07:03:04 AM 27.3111 -81.6389 12° North 218 251 29,300 1,000 Climbing Miami Center
Sat 07:04:04 AM 27.3722 -81.6228 13° North 218 251 30,100 750 Climbing Miami Center
Sat 07:05:04 AM 27.4333 -81.6089 11° North 223 257 30,800 700 Climbing Miami Center
Sat 07:06:04 AM 27.4922 -81.5950 12° North 223 257 31,500 800 Climbing Miami Center
Sat 07:07:04 AM 27.5617 -81.5767 13° North 223 257 32,400 850 Climbing Miami Center
Sat 07:08:04 AM 27.6225 -81.5628 11° North 223 257 33,200 750 Climbing Miami Center
Sat 07:09:04 AM 27.6853 -81.5631 360° North 223 257 33,900 650 Climbing Miami Center
Sat 07:10:04 AM 27.7394 -81.5631 360° North 217 250 34,500 650 Climbing Miami Center
Sat 07:11:04 AM 27.8022 -81.5608 North 217 250 35,200 600 Climbing Miami Center
Sat 07:12:04 AM 27.8564 -81.5608 360° North 217 250 35,700 550 Climbing Miami Center
Sat 07:13:04 AM 27.9253 -81.5614 360° North 217 250 36,300 550 Climbing Miami Center
Sat 07:14:04 AM 27.9858 -81.5592 North 217 250 36,800 350 Climbing Miami Center
Sat 07:15:04 AM 28.0528 -81.5572 North 217 250 37,000 100 Climbing Miami Center
Sat 07:16:04 AM 28.1236 -81.5553 North 229 264 37,000  Level Miami Center
Sat 07:17:04 AM 28.2008 -81.5539 North 258 297 37,000  Level Miami Center
Sat 07:18:04 AM 28.2803 -81.5525 North 271 312 37,000  Level Miami Center
Sat 07:19:04 AM 28.3617 -81.5511 North 282 325 37,000  Level Miami Center
Sat 07:19:58 AM 28.4497 -81.5517 360° North 302 348 37,000  Level Jacksonville Center
Sat 07:20:58 AM 28.5353 -81.5481 North 308 354 37,000  Level Jacksonville Center
Sat 07:21:58 AM 28.6208 -81.5469 North 308 354 37,000  Level Jacksonville Center
Sat 07:22:58 AM 28.7083 -81.5433 North 308 354 37,000  Level Jacksonville Center
Sat 07:23:58 AM 28.7961 -81.5444 359° North 308 354 37,000  Level Jacksonville Center
Sat 07:24:58 AM 28.8878 -81.5361 North 308 354 37,000  Level Jacksonville Center
Sat 07:25:58 AM 28.9753 -81.5278 North 313 360 37,000  Level Jacksonville Center
Sat 07:26:58 AM 29.0672 -81.5169 North 313 360 37,000  Level Jacksonville Center
Sat 07:27:58 AM 29.1567 -81.5064 North 313 360 37,000  Level Jacksonville Center
Sat 07:28:58 AM 29.2361 -81.5006 North 312 359 37,000  Level Jacksonville Center
Sat 07:29:58 AM 29.3278 -81.4897 North 312 359 37,000  Level Jacksonville Center
Sat 07:30:58 AM 29.4194 -81.4811 North 317 365 37,000  Level Jacksonville Center
Sat 07:31:58 AM 29.5133 -81.4725 North 329 379 37,000  Level Jacksonville Center
Sat 07:32:58 AM 29.6050 -81.4642 North 329 379 37,000  Level Jacksonville Center
Sat 07:33:58 AM 29.6989 -81.4508 North 329 379 37,000  Level Jacksonville Center
Sat 07:34:58 AM 29.7886 -81.4422 North 329 379 37,000  Level Jacksonville Center
Sat 07:35:58 AM 29.8803 -81.4336 North 329 379 37,000  Level Jacksonville Center
Sat 07:36:58 AM 29.9700 -81.4253 North 329 379 37,000  Level Jacksonville Center
Sat 07:37:58 AM 30.0617 -81.4142 North 329 379 37,000  Level Jacksonville Center
Sat 07:38:58 AM 30.1514 -81.4056 North 329 379 37,000  Level Jacksonville Center
Sat 07:39:58 AM 30.2431 -81.3947 North 329 379 37,000  Level Jacksonville Center
Sat 07:40:58 AM 30.3328 -81.3883 North 329 379 37,000  Level Jacksonville Center
Sat 07:41:58 AM 30.4225 -81.3772 North 329 379 37,000  Level Jacksonville Center
Sat 07:42:58 AM 30.5142 -81.3661 North 329 379 37,000  Level Jacksonville Center
Sat 07:43:58 AM 30.6061 -81.3600 North 329 379 37,000  Level Jacksonville Center
Sat 07:44:58 AM 30.6956 -81.3514 North 329 379 37,000  Level Jacksonville Center
Sat 07:45:58 AM 30.7875 -81.3425 North 329 379 37,000  Level Jacksonville Center
Sat 07:46:58 AM 30.8792 -81.3361 North 329 379 37,000  Level Jacksonville Center
Sat 07:47:58 AM 30.9689 -81.3275 North 329 379 37,000  Level Jacksonville Center
Sat 07:48:58 AM 31.0606 -81.3186 North 329 379 37,000  Level Jacksonville Center
Sat 07:49:58 AM 31.1503 -81.3097 North 329 379 37,000  Level Jacksonville Center
Sat 07:50:58 AM 31.2547 -81.3008 North 326 375 37,000  Level Jacksonville Center
Sat 07:51:58 AM 31.3464 -81.2919 North 326 375 37,000  Level Jacksonville Center
Sat 07:52:58 AM 31.4339 -81.2806 North 326 375 37,000  Level Jacksonville Center
Sat 07:53:58 AM 31.5256 -81.2742 North 325 374 37,000  Level Jacksonville Center
Sat 07:54:58 AM 31.6092 -81.2656 North 330 380 37,000  Level Jacksonville Center
Sat 07:55:58 AM 31.7072 -81.2564 North 330 380 37,000  Level Jacksonville Center
Sat 07:56:58 AM 31.7906 -81.2475 North 330 380 37,000  Level Jacksonville Center
Sat 07:57:58 AM 31.8803 -81.2411 North 325 374 37,000  Level Jacksonville Center
Sat 07:58:58 AM 31.9761 -81.2369 North 330 380 37,000  Level Jacksonville Center
Sat 07:59:58 AM 32.0658 -81.2256 North 325 374 37,000  Level Jacksonville Center
Sat 08:00:58 AM 32.1556 -81.2189 North 325 374 37,000  Level Jacksonville Center
Sat 08:01:58 AM 32.2472 -81.2100 North 325 374 37,000  Level Jacksonville Center
Sat 08:02:58 AM 32.3411 -81.2008 North 330 380 37,000  Level Jacksonville Center
Sat 08:03:58 AM 32.4328 -81.1942 North 330 380 37,000  Level Jacksonville Center
Sat 08:04:58 AM 32.5328 -81.1825 North 329 379 37,000  Level Jacksonville Center
Sat 08:05:58 AM 32.6225 -81.1833 360° North 321 369 37,000  Level Jacksonville Center
Sat 08:06:58 AM 32.7042 -81.1867 358° North 321 369 37,000  Level Jacksonville Center
Sat 08:07:58 AM 32.8022 -81.1922 357° North 321 369 37,000  Level Jacksonville Center
Sat 08:08:58 AM 32.8919 -81.1956 358° North 321 369 37,000  Level Jacksonville Center
Sat 08:09:58 AM 32.9817 -81.1864 North 321 369 37,000  Level Jacksonville Center
Sat 08:10:58 AM 33.0667 -81.1353 27° Northeast 321 369 37,000  Level Jacksonville Center
Sat 08:11:58 AM 33.1494 -81.0839 27° Northeast 326 375 37,000  Level Jacksonville Center
Sat 08:12:58 AM 33.2322 -81.0350 26° Northeast 331 381 37,000  Level Jacksonville Center
Sat 08:13:58 AM 33.3147 -80.9836 27° Northeast 331 381 37,000  Level Jacksonville Center
Sat 08:14:58 AM 33.3997 -80.9294 28° Northeast 331 381 37,000  Level Jacksonville Center
Sat 08:15:58 AM 33.4822 -80.8778 28° Northeast 331 381 37,000  Level Jacksonville Center
Sat 08:16:58 AM 33.5650 -80.8286 26° Northeast 331 381 37,000 -350 Level Jacksonville Center
Sat 08:17:58 AM 33.6517 -80.7767 27° Northeast 331 381 36,300 -850 Descending Jacksonville Center
Sat 08:18:58 AM 33.7364 -80.7222 28° Northeast 336 387 35,300 -1,050 Descending Jacksonville Center
Sat 08:19:58 AM 33.8211 -80.6703 27° Northeast 341 392 34,200 -1,350 Descending Jacksonville Center
Sat 08:20:58 AM 33.9036 -80.6156 29° Northeast 336 387 32,600 -1,600 Descending Jacksonville Center
Sat 08:21:58 AM 33.9881 -80.5658 26° Northeast 331 381 31,000 -1,750 Descending Jacksonville Center
Sat 08:22:58 AM 34.0728 -80.5108 28° Northeast 331 381 29,100 -1,800 Descending Jacksonville Center
Sat 08:23:58 AM 34.1572 -80.4583 27° Northeast 336 387 27,400 -1,681 Descending Jacksonville Center
Sat 08:26:00 AM 34.3208 -80.3594 27° Northeast 352 405 24,000 -1,443 Descending Washington Center
Sat 08:27:01 AM 34.4022 -80.3064 28° Northeast 347 399 23,000 -496 Descending Washington Center
Sat 08:28:01 AM 34.4836 -80.2506 29° Northeast 332 382 23,000  Level Washington Center
Sat 08:28:58 AM 34.5586 -80.2042 27° Northeast 319 367 23,000  Level Washington Center
Sat 08:30:00 AM 34.6397 -80.1533 27° Northeast 314 361 23,000  Level Washington Center
Sat 08:31:00 AM 34.7167 -80.1047 27° Northeast 314 361 23,000  Level Washington Center
Sat 08:32:01 AM 34.7897 -80.0506 31° Northeast 314 361 23,000  Level Washington Center
Sat 08:33:01 AM 34.8611 -79.9811 39° Northeast 314 361 23,000  Level Washington Center
Sat 08:33:59 AM 34.9244 -79.9058 44° Northeast 314 361 23,000 -661 Level Washington Center
Sat 08:34:59 AM 34.9917 -79.8361 40° Northeast 314 361 21,700 -1,636 Descending Washington Center
Sat 08:36:00 AM 35.0633 -79.7561 42° Northeast 326 375 19,700 -1,800 Descending Washington Center
Sat 08:36:59 AM 35.1369 -79.6761 42° Northeast 338 389 18,100 -1,563 Descending Washington Center
Sat 08:37:59 AM 35.2103 -79.6036 39° Northeast 338 389 16,600 -1,438 Descending Washington Center
Sat 08:39:00 AM 35.2942 -79.5975 North 327 376 15,200 -1,377 Descending Washington Center
Sat 08:40:00 AM 35.3729 -79.5946 351° North  Level FlightAware Approximate
Sat 08:47:00 AM 35.8746 -79.8476 329° Northwest  Level FlightAware Approximate
Sat 08:48:00 AM 35.9426 -79.8986 329° Northwest  Level FlightAware Approximate
Sat 08:49:00 AM 36.0103 -79.9436 321° Northwest  Level FlightAware Approximate
Sat 08:50:00 AM 36.0793 -79.9472 28° Northeast  Level FlightAware Approximate
Sat 08:51:00 AM 36.1000 -79.9333 28° Northeast  Level FlightAware Approximate
Sat 08:52:00 AM 36.1013 -79.9411 28° Northeast  Level Estimated
Sat 08:53:00 AM 36.1000 -79.9333 28° Northeast  Level FlightAware Approximate
Sat 08:54:00 AM 36.1013 -79.9411 28° Northeast  Level Estimated
Sat 08:55:00 AM 36.1000 -79.9333 28° Northeast  Level FlightAware Approximate

Login

Don't have an account? Register now (free) for customized features, flight alerts, and more!